Mark Sargent

Chefscout - Orlando City
17 Jul 2027
Samstag
Verarbeitung

Persönlichkeit

Anpassungsfähigkeit (15) Ehrgeiz (17) Kontroverse (13) Loyalität (5) Druck (4) Professionalität (12) Fairness (5) Temperament (9)

Profil

Trainerstil Demokratisch
Lizenz Nationale A
Entschlossenheit 11
Menschenführung 6
Motivation 13
Disziplin 10
Arbeitszufriedenheit
100%
Ermüdung
0%
Rolle Chefscout
Gehalt 41.6K p/W
Vertrag 14.03.2030

Leistung

Verhalten Gut
Trainingseffektivität
41%
Spielerentwicklung
30%
Verletzungsprävention
45%
Taktische Umsetzung
20%

Letzte Ereignisse

Nahm an einer Scouting-Besprechung teil 7T her
Nahm an einer Scouting-Besprechung teil 7T her
Spieler begutachtet 7T her
Nahm an einer Scouting-Besprechung teil 14T her
Nahm an einer Scouting-Besprechung teil 14T her
Spiel beobachtet 14T her
Nahm an einer Scouting-Besprechung teil 21T her
Spiel beobachtet 21T her

Aktuell beobachtet

117
Spieler Verein Status Fähigkeit Vertrauen Beobachtet Zuletzt beobachtet Letzte Stimme
Finn Surman Portland Timbers Bericht bereit 121 / 107 62% 1 14.07.2027 -
Rumarn Burrell Queens Park Rangers Aktiv 137 / 133 40% 1 07.07.2027 -
Moussa Yeo Swansea City Aktiv 122 / 127 40% 1 07.07.2027 -
Caleb Yirenkyi Coventry City Aktiv 141 / 143 40% 1 08.03.2027 -
Zeki Amdouni Burnley Aktiv 140 / 130 40% 3 23.02.2027 -
Favour Bala Plateau United Aktiv 96 / 82 40% 2 14.02.2027 -
Gonzalo Fulham Aktiv 149 / 138 40% 2 13.02.2027 -
Sam Surridge Leeds United Aktiv 137 / 122 40% 2 12.02.2027 -
Aidomo Emakhu Oxford United Aktiv 116 / 126 40% 1 12.02.2027 -
Francisco Sciarini Deportes Tolima Aktiv 86 / 91 40% 1 12.02.2027 -
Tommaso Orsini Sambenedettese Aktiv 90 / 98 40% 1 12.02.2027 -
Ilyas Ansah Hull City Aktiv 132 / 130 40% 2 10.02.2027 -
Charlie Kelman Charlton Athletic Aktiv 106 / 114 40% 3 10.02.2027 -
Abu Kamara Portsmouth Aktiv 120 / 120 40% 3 09.02.2027 -
Etiosa Ighodaro Kaizer Chiefs Aktiv 108 / 96 40% 4 08.02.2027 -
Liam Delap Nottingham Forest Aktiv 146 / 142 40% 3 08.02.2027 -
Harvey Blair Portsmouth Aktiv 108 / 119 40% 2 05.02.2027 -
Jovon Makama Norwich City Aktiv 121 / 114 40% 2 04.02.2027 -
Lamine Cissé Peterborough United Aktiv 127 / 118 40% 3 03.02.2027 -
Dávid Strelec Middlesbrough Aktiv 147 / 140 40% 1 03.02.2027 -
Armando Broja Burnley Aktiv 145 / 133 40% 1 01.02.2027 Mehr Infos nötig
Davis Keillor-Dunn Wrexham Aktiv 113 / 111 40% 2 31.01.2027 -
Brian Brobbey Sunderland Aktiv 147 / 149 40% 1 30.01.2027 -
Marezi Portsmouth Aktiv 111 / 124 40% 1 27.01.2027 -
Werner Oosthuizen Leixões Aktiv 71 / 88 40% 1 27.01.2027 -
Yousef Salech Cardiff City Aktiv 136 / 133 40% 2 25.01.2027 -
Richard Koné Queens Park Rangers Aktiv 116 / 124 40% 2 25.01.2027 -
Theo Avery Northampton Town Aktiv 87 / 89 40% 1 25.01.2027 -
Uriel Ramos Defensa y Justicia Aktiv 92 / 104 40% 1 25.01.2027 -
Giovanni Stellato Guidonia Montecelio Aktiv 79 / 85 40% 1 23.01.2027 -
Oli McBurnie Hull City Aktiv 143 / 141 40% 2 21.01.2027 -
Tyreece Campbell Charlton Athletic Aktiv 118 / 119 40% 1 21.01.2027 -
Taiwo Awoniyi Coventry City Aktiv 137 / 142 40% 2 19.01.2027 -
Patrick Agyemang Derby County Aktiv 133 / 119 40% 1 19.01.2027 -
Fernando Bravo Independiente Rivadavia Aktiv 90 / 100 40% 2 17.01.2027 -
Dom Ballard Leyton Orient Aktiv 127 / 120 40% 1 17.01.2027 -
Camilo Durán Bloemfontein Celtic Aktiv 109 / 133 40% 5 14.01.2027 -
Jakub Przewoźny Millwall Aktiv 87 / 102 40% 1 14.01.2027 -
Rodrigo Muniz Fulham Aktiv 145 / 129 40% 1 12.01.2027 -
Tyrese Campbell Sheffield United Aktiv 136 / 120 40% 1 11.01.2027 -
George Hirst Stoke City Aktiv 130 / 130 40% 1 10.01.2027 -
Adam Idah Swansea City Aktiv 132 / 125 40% 2 09.01.2027 -
Alfonso Álvarez Ferro Carril Oeste Aktiv 85 / 88 40% 2 06.01.2027 -
Emiliano Zacca Deportivo Riestra Aktiv 83 / 92 40% 2 05.01.2027 -
Elijah Adebayo Luton Town Aktiv 117 / 118 40% 1 04.01.2027 -
Assane Diao Como Aktiv 141 / 152 40% 3 30.12.2026 -
Owen Foster Millwall Aktiv 77 / 88 40% 2 30.12.2026 -
Daryl Dike West Bromwich Albion Aktiv 120 / 125 40% 1 26.12.2026 -
Timo Werner San Jose Earthquakes Aktiv 127 / 126 40% 6 23.12.2026 -
Juan Brunetta Torino Aktiv 140 / 149 40% 2 21.12.2026 -
Nicolò Zaniolo Udinese Aktiv 153 / 134 40% 1 20.12.2026 -
Korede Osundina Casa Pia Aktiv 113 / 113 40% 2 19.12.2026 -
George Pickford Everton Aktiv 80 / 93 40% 1 19.12.2026 -
Facundo Jáuregui Huracán Aktiv 93 / 97 40% 1 19.12.2026 -
Gonzalo Berterame Beitar Jerusalem Aktiv 114 / 115 40% 2 18.12.2026 -
Prosper Obah Shakhtar Aktiv 113 / 129 40% 1 15.12.2026 -
Iqraam Rayners Mamelodi Sundowns Aktiv 130 / 141 40% 4 11.12.2026 -
Charles De Ketelaere Atalanta Aktiv 152 / 163 40% 1 11.12.2026 -
Thiago Perruisset Boca Juniors Aktiv 87 / 89 40% 2 08.12.2026 -
Rafael Navarro St. Louis CITY SC Aktiv 123 / 125 40% 1 04.12.2026 -
Marcus Ingvartsen San Diego Football Club Aktiv 118 / 136 40% 2 30.11.2026 -
Dejan Joveljić Seattle Sounders Aktiv 117 / 121 40% 3 29.11.2026 -
Maurice Malone Minnesota United FC Aktiv 127 / 119 40% 2 27.11.2026 -
Mateo Albornoz Unión de Santa Fe Aktiv 79 / 83 40% 1 26.11.2026 -
Santiago Galli Belgrano Aktiv 92 / 100 40% 1 25.11.2026 -
Emanuel Bonda Argentinos Juniors Aktiv 78 / 94 40% 1 25.11.2026 -
Bénie Traoré New York City Aktiv 124 / 131 40% 3 23.11.2026 -
Samuele Vignato HNK Rijeka Aktiv 120 / 108 40% 1 23.11.2026 -
Tadeo Allende Inter Miami CF Aktiv 119 / 131 40% 1 21.11.2026 -
Lisandro Musso Central Córdoba SdE Aktiv 85 / 86 40% 1 18.11.2026 -
Enrique Maza Atlético Tucumán Aktiv 83 / 96 40% 1 18.11.2026 -
Alonso Martínez NK Osijek Aktiv 113 / 123 40% 1 18.11.2026 -
Nilson Angulo Sunderland Aktiv 120 / 133 40% 1 17.11.2026 -
Marin Benko Zadar Aktiv 130 / 138 40% 1 16.11.2026 -
Claudy M'Buyi Rapid Wien Aktiv 118 / 124 40% 2 15.11.2026 -
Lewis Morgan Toronto FC Aktiv 133 / 134 40% 2 12.11.2026 -
Stefano Condino All Boys Aktiv 72 / 92 40% 1 12.11.2026 -
Jesus Ferreira Seattle Sounders Aktiv 136 / 120 40% 3 10.11.2026 -
Victor Olatunji Real Salt Lake Aktiv 126 / 115 40% 4 06.11.2026 -
Dario Vizinger NK Maribor Aktiv 110 / 126 40% 1 06.11.2026 -
Franco Yennerich Talleres Aktiv 94 / 99 40% 1 06.11.2026 -
Indiana Vassilev Philadelphia Union Aktiv 121 / 111 40% 2 02.11.2026 -
Luca Langoni New England Revolution Aktiv 137 / 122 40% 4 02.11.2026 -
Guilherme Houston Dynamo Aktiv 127 / 113 40% 2 31.10.2026 -
Cheikh Sabaly Vancouver Whitecaps Aktiv 132 / 133 40% 2 30.10.2026 -
Ulíses López Barracas Central Aktiv 76 / 100 40% 1 30.10.2026 -
Gianluca Valdiviezo Colón Aktiv 91 / 103 40% 1 30.10.2026 -
Mateusz Bogusz Houston Dynamo Aktiv 131 / 124 40% 1 28.10.2026 -
Breel Embolo Atlanta United FC Aktiv 147 / 140 40% 4 27.10.2026 -
Leonardo Campana New England Revolution Aktiv 123 / 130 40% 3 26.10.2026 -
Jordan Morris Seattle Sounders Aktiv 136 / 131 40% 1 26.10.2026 -
Liel Abada Charlotte Football Club Aktiv 124 / 142 40% 3 24.10.2026 -
Talles Magno New York City Aktiv 128 / 124 40% 1 22.10.2026 -
Lebo Mothiba Mamelodi Sundowns Aktiv 122 / 122 40% 2 21.10.2026 -
Franco Capponi Aldosivi Aktiv 94 / 106 40% 1 19.10.2026 -
Thiago Nahuel Independiente Aktiv 84 / 87 40% 1 19.10.2026 -
Cristian Dájome Vancouver Whitecaps Aktiv 120 / 114 40% 1 14.10.2026 -
Agustín Anello Philadelphia Union Aktiv 117 / 116 40% 3 13.10.2026 -
Matheus Nascimento Houston Dynamo Aktiv 122 / 126 40% 1 13.10.2026 -
Emmanuel Sabbi Vancouver Whitecaps Aktiv 111 / 109 40% 1 11.10.2026 -
Denis Bouanga Los Angeles Football Club Aktiv 132 / 125 40% 2 10.10.2026 -
Brandon Vázquez Austin FC Aktiv 126 / 129 40% 1 09.10.2026 -
Alexander Aravena Portland Timbers Aktiv 115 / 119 40% 2 05.10.2026 -
Prince Owusu CF Montreal Aktiv 109 / 110 40% 1 30.09.2026 -
Khari Ranson Arsenal Aktiv 91 / 105 40% 1 29.09.2026 -
Ramiro Ruiz Rodríguez Atlético Tucumán Aktiv 111 / 122 40% 3 28.09.2026 -
Biola Sabitu Remo Stars Aktiv 83 / 93 40% 1 27.09.2026 -
Ignacio Cardozo Vélez Aktiv 72 / 83 40% 1 22.09.2026 -
João Klauss LA Galaxy Aktiv 136 / 119 40% 1 19.09.2026 -
Derrick Etienne Jr. Toronto FC Aktiv 104 / 122 40% 1 19.09.2026 -
Marcelo Torres Gimnasia La Plata Aktiv 125 / 115 40% 1 18.09.2026 -
Kyogo Furuhashi LA Galaxy Aktiv 121 / 104 40% 1 16.09.2026 -
Donovan Parisian New England Revolution Aktiv 98 / 89 40% 1 16.09.2026 -
Haris Tabaković Red Bull Salzburg Aktiv 131 / 135 40% 1 14.09.2026 -
Luca Bombino Stoke City Aktiv 108 / 98 40% 1 11.09.2026 -
Brian White Vancouver Whitecaps Aktiv 119 / 130 40% 1 10.09.2026 -
Agustín Martínez Talleres Aktiv 78 / 96 40% 1 03.08.2026 -